Time;durP1;ratioP1;P1;durP2;ratioP2;P2;SDS_P1;SDS_P2;PMS_P1;PMS_P2;Temp;Humidity;BMP_temperature;BMP_pressure;BME280_temperature;BME280_humidity;BME280_pressure;Samples;Min_cycle;Max_cycle;Signal;HPM_P1;HPM_P2
2020/12/04 00:00:15;;;;;;;11.00;7.68;;;2.90;1.00;;;;;;5064679;28;20316;-75
2020/12/04 00:02:42;;;;;;;12.70;8.10;;;3.00;1.00;;;;;;5063550;28;20214;-75
2020/12/04 00:05:09;;;;;;;12.23;9.10;;;2.90;1.00;;;;;;5063589;28;20249;-75
2020/12/04 00:07:37;;;;;;;10.15;7.85;;;2.90;1.00;;;;;;5065783;28;20249;-75
2020/12/04 00:10:05;;;;;;;10.35;7.72;;;3.00;1.00;;;;;;5063933;28;20447;-76
2020/12/04 00:12:32;;;;;;;9.30;7.22;;;3.10;1.00;;;;;;5065597;28;20210;-75
2020/12/04 00:15:00;;;;;;;12.05;9.07;;;3.00;1.00;;;;;;5063962;28;20290;-75
2020/12/04 00:17:28;;;;;;;10.38;7.90;;;3.00;1.00;;;;;;5064902;28;20242;-75
2020/12/04 00:19:55;;;;;;;13.15;8.82;;;3.00;1.00;;;;;;5064434;28;20246;-75
2020/12/04 00:22:22;;;;;;;10.73;7.55;;;3.00;1.00;;;;;;5063095;28;20210;-74
2020/12/04 00:24:49;;;;;;;10.00;7.90;;;2.90;1.00;;;;;;5061961;28;20243;-74
2020/12/04 00:27:17;;;;;;;12.75;9.23;;;3.00;1.00;;;;;;5067181;28;20579;-75
2020/12/04 00:29:44;;;;;;;14.48;8.32;;;3.10;1.00;;;;;;5065012;28;20211;-75
2020/12/04 00:32:11;;;;;;;13.73;8.65;;;3.10;1.00;;;;;;5064671;28;20651;-74
2020/12/04 00:34:42;;;;;;;14.25;10.07;;;3.20;1.00;;;;;;5066807;28;20289;-74
2020/12/04 00:37:11;;;;;;;14.07;9.05;;;3.20;1.00;;;;;;5063069;28;20203;-76
2020/12/04 00:39:38;;;;;;;12.02;8.20;;;3.20;1.00;;;;;;5064597;28;20287;-75
2020/12/04 00:42:06;;;;;;;11.75;8.60;;;3.10;1.00;;;;;;5062745;28;20214;-75
2020/12/04 00:44:33;;;;;;;16.20;9.05;;;3.10;1.00;;;;;;5064737;28;21059;-75
2020/12/04 00:47:01;;;;;;;14.52;9.35;;;3.10;1.00;;;;;;5063143;28;20225;-74
2020/12/04 00:49:29;;;;;;;12.10;9.52;;;3.10;1.00;;;;;;5063813;28;20222;-75
2020/12/04 00:51:57;;;;;;;11.10;7.53;;;3.00;1.00;;;;;;5066183;28;20588;-74
2020/12/04 00:54:24;;;;;;;15.38;9.85;;;3.10;1.00;;;;;;5064360;28;20328;-75
2020/12/04 00:56:52;;;;;;;13.57;9.02;;;3.10;1.00;;;;;;5057484;28;20312;-75
2020/12/04 00:59:19;;;;;;;15.07;10.85;;;3.00;1.00;;;;;;5065050;28;20231;-75
2020/12/04 01:01:46;;;;;;;15.00;9.57;;;3.00;1.00;;;;;;5064312;28;20221;-75
2020/12/04 01:04:13;;;;;;;15.68;9.80;;;3.10;1.00;;;;;;5066897;28;20219;-74
2020/12/04 01:06:40;;;;;;;12.52;8.93;;;3.00;1.00;;;;;;5064549;28;20665;-76
2020/12/04 01:09:09;;;;;;;11.15;8.05;;;3.00;1.00;;;;;;5070350;28;20223;-76
2020/12/04 01:11:36;;;;;;;9.27;6.85;;;2.90;1.00;;;;;;5067588;28;20206;-75
2020/12/04 01:14:03;;;;;;;11.23;7.82;;;3.00;1.00;;;;;;5061088;28;20226;-76
2020/12/04 01:16:30;;;;;;;10.75;8.05;;;3.00;1.00;;;;;;5064462;28;20238;-75
2020/12/04 01:18:58;;;;;;;13.77;9.07;;;3.10;1.00;;;;;;5061077;28;20213;-75
2020/12/04 01:21:25;;;;;;;12.38;8.40;;;3.10;1.00;;;;;;5060121;28;20285;-75
2020/12/04 01:23:53;;;;;;;12.38;8.30;;;3.20;1.00;;;;;;5067335;28;20696;-74
2020/12/04 01:26:22;;;;;;;12.60;8.18;;;3.00;1.00;;;;;;5065942;28;20241;-75
2020/12/04 01:28:49;;;;;;;13.23;8.70;;;3.10;1.00;;;;;;5093335;28;20219;-75
2020/12/04 01:31:16;;;;;;;12.20;8.60;;;3.00;1.00;;;;;;5061399;28;20225;-75
2020/12/04 01:33:43;;;;;;;13.32;9.25;;;3.00;1.00;;;;;;5066984;28;20217;-74
2020/12/04 01:36:13;;;;;;;14.13;9.63;;;3.00;1.00;;;;;;5064485;28;20235;-74
2020/12/04 01:38:40;;;;;;;13.60;9.10;;;3.00;1.00;;;;;;5066609;28;20225;-73
2020/12/04 01:41:07;;;;;;;11.57;8.18;;;3.10;1.00;;;;;;5068588;28;20228;-75
2020/12/04 01:43:40;;;;;;;10.68;7.90;;;3.10;1.00;;;;;;5069342;28;20211;-75
2020/12/04 01:46:07;;;;;;;9.80;7.80;;;3.00;1.00;;;;;;5068905;28;20261;-75
2020/12/04 01:48:34;;;;;;;13.35;8.55;;;3.00;1.00;;;;;;5060609;28;20360;-75
2020/12/04 01:51:02;;;;;;;10.40;7.65;;;3.00;1.00;;;;;;5065517;28;20219;-75
2020/12/04 01:53:29;;;;;;;11.00;7.60;;;3.00;1.00;;;;;;5067260;28;20211;-75
2020/12/04 01:55:56;;;;;;;8.27;6.78;;;2.90;1.00;;;;;;5065275;28;20771;-75
2020/12/04 01:58:24;;;;;;;7.40;5.95;;;2.90;1.00;;;;;;5067555;28;20333;-75
2020/12/04 02:00:52;;;;;;;12.45;7.07;;;3.00;1.00;;;;;;5066949;28;20207;-77
2020/12/04 02:03:19;;;;;;;10.10;6.47;;;3.10;1.00;;;;;;5066324;28;20580;-76
2020/12/04 02:05:54;;;;;;;10.60;7.90;;;3.10;1.00;;;;;;5059124;28;20230;-76
2020/12/04 02:08:28;;;;;;;7.95;6.35;;;3.10;99.90;;;;;;5062282;28;20240;-74
2020/12/04 02:11:04;;;;;;;8.52;6.20;;;3.20;99.90;;;;;;5069876;28;20661;-75
2020/12/04 02:13:32;;;;;;;12.75;8.80;;;3.10;99.90;;;;;;5061989;28;20216;-75
2020/12/04 02:16:01;;;;;;;10.07;7.18;;;3.20;99.90;;;;;;5062792;28;20762;-76
2020/12/04 02:18:28;;;;;;;10.10;7.40;;;3.30;99.90;;;;;;5067821;28;20197;-75
2020/12/04 02:21:01;;;;;;;9.85;6.95;;;3.30;99.90;;;;;;5055237;28;20281;-76
2020/12/04 02:23:29;;;;;;;7.30;5.32;;;3.40;99.90;;;;;;5065914;28;20249;-76
2020/12/04 02:25:57;;;;;;;11.30;7.70;;;3.50;99.90;;;;;;5064398;28;20229;-75
2020/12/04 02:28:35;;;;;;;10.23;7.47;;;3.50;99.90;;;;;;5063794;28;20451;-75
2020/12/04 02:31:03;;;;;;;8.73;6.78;;;3.50;99.90;;;;;;5062786;28;20216;-76
2020/12/04 02:33:30;;;;;;;8.45;6.65;;;3.60;99.90;;;;;;5067523;28;20450;-75
2020/12/04 02:35:57;;;;;;;10.32;7.25;;;3.60;99.90;;;;;;5070316;28;20360;-76
2020/12/04 02:38:26;;;;;;;10.10;7.03;;;3.50;99.90;;;;;;5073639;28;20211;-75
2020/12/04 02:40:54;;;;;;;9.07;6.97;;;3.50;99.90;;;;;;5068035;28;21018;-76
2020/12/04 02:43:22;;;;;;;9.30;7.55;;;3.50;99.90;;;;;;5067256;28;20213;-76
2020/12/04 02:45:49;;;;;;;9.85;7.78;;;3.50;99.90;;;;;;5068750;28;20588;-75
2020/12/04 02:48:16;;;;;;;7.63;6.15;;;3.50;99.90;;;;;;5066451;28;20231;-76
2020/12/04 02:50:44;;;;;;;12.75;8.15;;;3.40;99.90;;;;;;5058175;28;20726;-75
2020/12/04 02:53:11;;;;;;;9.52;7.13;;;3.10;99.90;;;;;;5063188;28;20224;-76
2020/12/04 02:55:40;;;;;;;8.25;6.03;;;3.10;99.90;;;;;;5086841;28;20607;-76
2020/12/04 02:58:07;;;;;;;10.45;7.47;;;3.10;99.90;;;;;;5063977;28;20215;-76
2020/12/04 03:00:34;;;;;;;9.23;7.03;;;3.00;99.90;;;;;;5070101;28;20231;-76
2020/12/04 03:03:01;;;;;;;11.50;7.80;;;3.00;99.90;;;;;;5067019;28;20686;-75
2020/12/04 03:05:29;;;;;;;11.98;7.90;;;3.20;99.90;;;;;;5058819;28;20687;-76
2020/12/04 03:07:56;;;;;;;11.27;8.15;;;3.20;99.90;;;;;;5067908;28;20231;-72
2020/12/04 03:10:23;;;;;;;13.82;8.30;;;3.30;99.90;;;;;;5062487;28;20219;-74
2020/12/04 03:12:51;;;;;;;10.18;7.38;;;3.40;99.90;;;;;;5065250;28;20226;-74
2020/12/04 03:15:18;;;;;;;10.18;6.75;;;3.40;99.90;;;;;;5063962;28;20329;-74
2020/12/04 03:17:46;;;;;;;9.23;6.88;;;3.50;99.90;;;;;;5059770;28;20270;-74
2020/12/04 03:20:13;;;;;;;11.05;7.32;;;3.50;99.90;;;;;;5067288;28;20225;-74
2020/12/04 03:22:40;;;;;;;10.65;7.68;;;3.50;99.90;;;;;;5065268;28;20308;-74
2020/12/04 03:25:07;;;;;;;7.72;6.85;;;3.50;99.90;;;;;;5057097;28;20348;-75
2020/12/04 03:27:35;;;;;;;10.23;7.68;;;3.50;99.90;;;;;;5067419;28;20587;-73
2020/12/04 03:30:04;;;;;;;10.35;8.75;;;3.40;99.90;;;;;;5065579;28;20228;-75
2020/12/04 03:32:32;;;;;;;9.27;7.10;;;3.40;99.90;;;;;;5053364;28;20214;-74
2020/12/04 03:34:59;;;;;;;8.98;7.50;;;3.30;99.90;;;;;;5063753;28;20259;-74
2020/12/04 03:37:27;;;;;;;10.73;8.35;;;3.30;1.00;;;;;;5056956;28;20211;-73
2020/12/04 03:39:54;;;;;;;8.65;7.07;;;3.40;1.00;;;;;;5059453;28;20269;-73
2020/12/04 03:42:21;;;;;;;10.57;8.35;;;3.50;1.00;;;;;;5062553;28;20243;-73
2020/12/04 03:44:49;;;;;;;10.32;7.40;;;3.50;1.00;;;;;;5064636;28;20305;-73
2020/12/04 03:47:17;;;;;;;11.02;8.25;;;3.50;1.00;;;;;;5055758;28;20668;-74
2020/12/04 03:49:44;;;;;;;9.25;7.07;;;3.50;1.00;;;;;;5065930;28;20215;-74
2020/12/04 03:52:11;;;;;;;8.40;6.53;;;3.60;1.00;;;;;;5064569;28;20222;-74
2020/12/04 03:54:39;;;;;;;9.48;7.35;;;3.60;1.00;;;;;;5057315;28;20228;-73
2020/12/04 03:57:06;;;;;;;9.75;6.78;;;3.60;1.00;;;;;;5065173;28;20200;-74
2020/12/04 03:59:33;;;;;;;9.20;7.00;;;3.60;1.00;;;;;;5088579;28;20628;-74
2020/12/04 04:02:01;;;;;;;10.57;7.45;;;3.60;1.00;;;;;;5065782;28;20718;-74
2020/12/04 04:04:29;;;;;;;12.00;8.55;;;3.50;1.00;;;;;;5067412;28;20264;-73
2020/12/04 04:06:56;;;;;;;9.38;6.82;;;3.50;1.00;;;;;;5068916;28;20214;-73
2020/12/04 04:09:23;;;;;;;8.45;7.65;;;3.30;1.00;;;;;;5071686;28;20240;-74
2020/12/04 04:11:51;;;;;;;10.52;6.65;;;3.30;1.00;;;;;;5066823;28;20260;-73
2020/12/04 04:14:18;;;;;;;11.40;8.70;;;3.30;1.00;;;;;;5065951;28;20755;-74
2020/12/04 04:16:45;;;;;;;9.88;7.40;;;3.30;1.00;;;;;;5056121;28;20597;-75
2020/12/04 04:19:12;;;;;;;7.80;6.43;;;3.10;1.00;;;;;;5064984;28;20582;-75
2020/12/04 04:21:40;;;;;;;9.43;6.78;;;3.10;1.00;;;;;;5063475;28;20696;-76
2020/12/04 04:24:07;;;;;;;7.82;6.57;;;3.20;1.00;;;;;;5066930;28;20701;-74
2020/12/04 04:26:35;;;;;;;8.48;6.63;;;3.30;1.00;;;;;;5064861;28;20270;-75
2020/12/04 04:29:02;;;;;;;9.13;7.60;;;3.40;1.00;;;;;;5066841;28;20575;-75
2020/12/04 04:31:29;;;;;;;10.23;7.97;;;3.50;1.00;;;;;;5063931;28;20555;-75
2020/12/04 04:33:56;;;;;;;9.48;7.53;;;3.60;1.00;;;;;;5064496;28;20211;-75
2020/12/04 04:36:24;;;;;;;10.23;8.00;;;3.60;1.00;;;;;;5064392;28;20819;-76
2020/12/04 04:38:52;;;;;;;10.07;7.57;;;3.60;1.00;;;;;;5065439;28;20209;-75
2020/12/04 04:41:19;;;;;;;8.88;6.90;;;3.60;1.00;;;;;;5062878;28;20210;-75
2020/12/04 04:43:47;;;;;;;11.02;7.47;;;3.60;1.00;;;;;;5063162;28;20622;-75
2020/12/04 04:46:26;;;;;;;11.05;7.50;;;3.60;1.00;;;;;;5065251;28;20231;-74
2020/12/04 04:48:58;;;;;;;11.40;7.53;;;3.50;1.00;;;;;;5072069;28;20236;-74
2020/12/04 04:51:26;;;;;;;7.65;6.50;;;3.50;1.00;;;;;;5090055;28;20212;-74
2020/12/04 04:53:57;;;;;;;10.00;7.05;;;3.50;1.00;;;;;;5066353;28;20214;-73
2020/12/04 04:56:25;;;;;;;10.77;6.38;;;3.60;1.00;;;;;;5061297;28;20632;-75
2020/12/04 04:58:52;;;;;;;7.32;6.50;;;3.60;1.00;;;;;;5063863;28;20212;-74
2020/12/04 05:01:19;;;;;;;7.10;5.95;;;3.50;1.00;;;;;;5061460;28;20228;-74
2020/12/04 05:03:58;;;;;;;12.05;8.50;;;3.50;1.00;;;;;;5059255;28;20219;-74
2020/12/04 05:06:32;;;;;;;8.20;6.28;;;3.60;1.00;;;;;;5083496;28;20245;-74
2020/12/04 05:09:00;;;;;;;8.52;6.25;;;3.60;99.90;;;;;;5061167;28;20235;-73
2020/12/04 05:11:27;;;;;;;9.15;6.65;;;3.50;1.00;;;;;;5065317;28;20212;-74
2020/12/04 05:14:22;;;;;;;8.63;5.70;;;3.40;99.90;;;;;;5066651;28;20217;-75
2020/12/04 05:16:52;;;;;;;7.10;5.80;;;3.40;99.90;;;;;;5051816;28;20303;-73
2020/12/04 05:19:30;;;;;;;9.23;5.68;;;3.40;99.90;;;;;;5087739;28;20210;-73
2020/12/04 05:21:57;;;;;;;9.90;6.65;;;3.40;99.90;;;;;;5067232;28;20702;-71
2020/12/04 05:24:27;;;;;;;7.10;4.75;;;3.50;99.90;;;;;;5065797;28;20218;-73
2020/12/04 05:26:55;;;;;;;5.55;4.68;;;3.60;99.90;;;;;;5067515;28;20218;-76
2020/12/04 05:29:37;;;;;;;6.72;4.30;;;3.60;99.90;;;;;;5060622;28;20865;-74
2020/12/04 05:32:14;;;;;;;6.53;4.80;;;3.70;99.90;;;;;;5065981;28;20225;-74
2020/12/04 05:34:41;;;;;;;5.97;4.97;;;3.80;99.90;;;;;;5066332;28;20212;-73
2020/12/04 05:37:10;;;;;;;7.38;4.97;;;3.90;99.90;;;;;;5067986;28;20216;-74
2020/12/04 05:39:47;;;;;;;5.75;4.68;;;3.90;99.90;;;;;;5065477;28;20235;-74
2020/12/04 05:42:29;;;;;;;8.75;5.68;;;3.80;99.90;;;;;;5069138;28;20334;-75
2020/12/04 05:44:57;;;;;;;6.45;5.13;;;3.70;99.90;;;;;;5068840;28;20705;-74
2020/12/04 05:47:35;;;;;;;6.95;5.97;;;3.80;99.90;;;;;;5066528;28;20349;-74
2020/12/04 05:50:04;;;;;;;5.53;4.97;;;3.80;99.90;;;;;;5062023;28;20299;-71
2020/12/04 05:52:34;;;;;;;7.32;5.22;;;3.90;99.90;;;;;;5080339;28;20213;-73
2020/12/04 05:55:03;;;;;;;5.80;4.40;;;4.00;99.90;;;;;;5063343;28;20292;-74
2020/12/04 05:57:42;;;;;;;5.72;4.82;;;3.90;99.90;;;;;;5064908;28;20272;-73
2020/12/04 06:00:10;;;;;;;6.65;5.25;;;3.90;99.90;;;;;;5070625;28;20225;-74
2020/12/04 06:02:39;;;;;;;5.13;4.43;;;3.90;99.90;;;;;;5061519;28;20216;-74
2020/12/04 06:05:06;;;;;;;6.45;4.85;;;4.00;99.90;;;;;;5068921;28;20631;-74
2020/12/04 06:07:33;;;;;;;4.10;3.70;;;4.10;99.90;;;;;;5062609;28;20702;-75
2020/12/04 06:10:02;;;;;;;6.97;5.03;;;4.10;99.90;;;;;;5065610;28;20211;-73
2020/12/04 06:12:30;;;;;;;4.68;4.18;;;4.00;99.90;;;;;;5059211;28;20690;-74
2020/12/04 06:15:21;;;;;;;5.53;4.22;;;4.00;99.90;;;;;;5059791;28;20242;-74
2020/12/04 06:17:50;;;;;;;4.10;3.70;;;4.00;99.90;;;;;;5065115;28;20261;-74
2020/12/04 06:20:18;;;;;;;4.60;3.75;;;4.10;99.90;;;;;;5065351;28;20697;-75
2020/12/04 06:23:10;;;;;;;5.45;3.97;;;4.10;99.90;;;;;;5063939;28;20588;-75
2020/12/04 06:26:01;;;;;;;3.92;3.55;;;4.20;99.90;;;;;;5067793;28;20714;-74
2020/12/04 06:28:30;;;;;;;4.50;3.17;;;4.10;99.90;;;;;;5068414;28;20255;-74
2020/12/04 06:31:19;;;;;;;5.53;5.00;;;4.10;99.90;;;;;;5067574;28;20220;-74
2020/12/04 06:33:48;;;;;;;7.10;5.30;;;4.20;99.90;;;;;;5062205;28;20228;-74
2020/12/04 06:36:40;;;;;;;5.40;4.80;;;4.30;99.90;;;;;;5067260;28;20852;-74
2020/12/04 06:39:07;;;;;;;4.82;3.58;;;4.20;99.90;;;;;;5057488;28;20232;-74
2020/12/04 06:41:37;;;;;;;4.43;3.63;;;4.00;99.90;;;;;;5065259;28;20250;-74
2020/12/04 06:44:06;;;;;;;5.55;4.10;;;4.10;99.90;;;;;;5067525;28;20811;-73
2020/12/04 06:46:40;;;;;;;5.47;3.53;;;4.20;99.90;;;;;;5067960;28;20773;-74
2020/12/04 06:52:03;;;;;;;5.07;3.72;;;4.30;99.90;;;;;;5074900;28;20242;-74
2020/12/04 06:54:31;;;;;;;6.75;4.10;;;4.20;99.90;;;;;;5064338;28;20220;-74
2020/12/04 06:57:00;;;;;;;4.05;3.42;;;4.10;99.90;;;;;;5066245;28;20577;-74
2020/12/04 06:59:29;;;;;;;5.28;3.92;;;4.10;99.90;;;;;;5084003;28;20579;-74
2020/12/04 07:02:05;;;;;;;6.50;4.85;;;4.10;99.90;;;;;;5064446;28;20562;-73
2020/12/04 07:04:33;;;;;;;4.80;3.90;;;4.20;99.90;;;;;;5067102;28;20215;-74
2020/12/04 07:07:11;;;;;;;5.70;4.28;;;4.10;99.90;;;;;;5064348;28;20214;-74
2020/12/04 07:09:41;;;;;;;5.30;4.43;;;4.10;99.90;;;;;;5067129;28;20256;-74
2020/12/04 07:12:14;;;;;;;4.28;3.67;;;4.20;99.90;;;;;;5065320;28;20635;-74
2020/12/04 07:14:43;;;;;;;5.85;4.03;;;4.20;99.90;;;;;;5065832;28;20673;-74
2020/12/04 07:17:14;;;;;;;4.88;4.35;;;4.10;99.90;;;;;;5062305;28;20210;-73
2020/12/04 07:19:45;;;;;;;4.93;3.80;;;4.20;99.90;;;;;;5064907;28;20312;-74
2020/12/04 07:22:15;;;;;;;5.15;3.50;;;4.30;99.90;;;;;;5063970;28;20380;-74
2020/12/04 07:24:43;;;;;;;4.53;3.65;;;4.30;99.90;;;;;;5064524;28;20218;-74
2020/12/04 07:27:13;;;;;;;4.20;3.20;;;4.20;99.90;;;;;;5064343;28;20706;-74
2020/12/04 07:29:41;;;;;;;4.07;3.53;;;4.20;99.90;;;;;;5065846;28;20399;-74
2020/12/04 07:32:08;;;;;;;5.32;3.88;;;4.20;99.90;;;;;;5067213;28;20242;-74
2020/12/04 07:34:38;;;;;;;5.28;3.30;;;4.40;99.90;;;;;;5065890;28;20221;-74
2020/12/04 07:37:06;;;;;;;4.57;3.47;;;4.60;99.90;;;;;;5063971;28;20236;-75
2020/12/04 07:39:35;;;;;;;4.13;3.72;;;4.60;99.90;;;;;;5067844;28;20553;-74
2020/12/04 07:42:04;;;;;;;3.33;2.80;;;4.70;99.90;;;;;;5065471;28;20211;-74
2020/12/04 07:44:35;;;;;;;14.95;7.57;;;4.80;99.90;;;;;;5066281;28;20221;-74
2020/12/04 07:47:05;;;;;;;13.15;7.25;;;4.80;99.90;;;;;;5065798;28;20598;-73
2020/12/04 07:49:33;;;;;;;12.40;7.22;;;4.70;99.90;;;;;;5064686;28;20415;-73
2020/12/04 07:52:15;;;;;;;12.77;6.30;;;4.60;99.90;;;;;;5068046;28;20571;-74
2020/12/04 07:54:42;;;;;;;5.32;4.40;;;4.50;99.90;;;;;;5063376;28;20219;-74
2020/12/04 07:57:12;;;;;;;8.40;5.22;;;4.40;99.90;;;;;;5063208;28;20691;-74
2020/12/04 07:59:41;;;;;;;10.13;6.63;;;4.20;99.90;;;;;;5065182;28;20868;-74
2020/12/04 08:02:09;;;;;;;9.25;6.32;;;4.20;99.90;;;;;;5065473;28;20223;-74
2020/12/04 08:04:43;;;;;;;12.50;5.68;;;4.20;99.90;;;;;;5063699;28;20798;-74
2020/12/04 08:07:11;;;;;;;6.43;4.43;;;4.30;99.90;;;;;;5066397;28;20280;-74
2020/12/04 08:09:41;;;;;;;6.28;4.88;;;4.40;99.90;;;;;;5065877;28;20293;-73
2020/12/04 08:12:15;;;;;;;8.43;5.07;;;4.40;99.90;;;;;;5063421;28;20273;-74
2020/12/04 08:14:50;;;;;;;5.72;3.92;;;4.50;99.90;;;;;;5064525;28;20211;-74
2020/12/04 08:17:19;;;;;;;7.85;5.30;;;4.40;99.90;;;;;;5064563;28;20542;-74
2020/12/04 08:19:47;;;;;;;6.75;4.20;;;4.60;99.90;;;;;;5062931;28;20293;-72
2020/12/04 08:22:15;;;;;;;5.75;4.30;;;4.70;99.90;;;;;;5065913;28;20545;-73
2020/12/04 08:24:51;;;;;;;3.88;3.20;;;4.80;99.90;;;;;;5065220;28;20618;-74
2020/12/04 08:27:25;;;;;;;5.15;4.10;;;4.80;99.90;;;;;;5069750;28;20768;-73
2020/12/04 08:30:09;;;;;;;5.57;3.92;;;4.80;99.90;;;;;;5072395;28;20716;-72
2020/12/04 08:32:37;;;;;;;5.50;3.70;;;4.90;99.90;;;;;;5064493;28;20232;-73
2020/12/04 08:35:09;;;;;;;4.20;3.17;;;5.10;99.90;;;;;;5065689;28;20783;-73
2020/12/04 08:37:37;;;;;;;3.67;3.28;;;5.20;99.90;;;;;;5064407;28;20624;-73
2020/12/04 08:40:05;;;;;;;4.47;4.00;;;5.20;99.90;;;;;;5065318;28;20228;-73
2020/12/04 08:42:34;;;;;;;4.20;3.63;;;5.00;99.90;;;;;;5065691;28;20212;-73
2020/12/04 08:45:07;;;;;;;5.68;5.13;;;4.70;99.90;;;;;;5065752;28;20456;-74
2020/12/04 08:47:38;;;;;;;6.15;4.85;;;4.60;99.90;;;;;;5064617;28;20276;-73
2020/12/04 08:50:17;;;;;;;5.22;4.13;;;4.50;99.90;;;;;;5065193;28;20203;-73
2020/12/04 08:52:50;;;;;;;4.97;4.32;;;4.40;99.90;;;;;;5062333;28;20274;-74
2020/12/04 08:55:20;;;;;;;4.53;4.10;;;4.40;99.90;;;;;;5062513;28;20232;-74
2020/12/04 08:57:50;;;;;;;5.18;4.68;;;4.50;99.90;;;;;;5066012;28;20236;-74
2020/12/04 09:00:21;;;;;;;5.43;4.20;;;4.50;99.90;;;;;;5064781;28;20229;-73
2020/12/04 09:02:48;;;;;;;5.63;5.03;;;4.60;99.90;;;;;;5063917;28;20205;-74
2020/12/04 09:05:17;;;;;;;6.10;4.63;;;4.50;99.90;;;;;;5065823;28;20321;-74
2020/12/04 09:07:45;;;;;;;6.68;5.18;;;4.40;99.90;;;;;;5063537;28;20237;-75
2020/12/04 09:10:14;;;;;;;6.35;4.85;;;4.40;99.90;;;;;;5062983;28;20288;-74
2020/12/04 09:12:43;;;;;;;5.82;4.63;;;4.40;99.90;;;;;;5062875;28;20219;-74
2020/12/04 09:15:13;;;;;;;6.18;5.00;;;4.50;99.90;;;;;;5063237;28;20464;-74
2020/12/04 09:17:41;;;;;;;6.07;4.68;;;4.60;99.90;;;;;;5063387;28;20248;-74
2020/12/04 09:20:10;;;;;;;5.80;4.38;;;4.70;99.90;;;;;;5064898;28;20324;-74
2020/12/04 09:22:38;;;;;;;6.25;5.28;;;5.00;99.90;;;;;;5061183;28;20859;-74
2020/12/04 09:25:07;;;;;;;6.03;4.53;;;5.00;99.90;;;;;;5064639;28;20265;-73
2020/12/04 09:27:34;;;;;;;5.50;4.95;;;5.20;99.90;;;;;;5064999;28;20223;-72
2020/12/04 09:30:02;;;;;;;5.20;4.70;;;5.30;99.90;;;;;;5065074;28;20308;-73
2020/12/04 09:32:30;;;;;;;6.68;5.97;;;5.30;99.90;;;;;;5064387;28;20548;-73
2020/12/04 09:34:58;;;;;;;8.37;6.60;;;5.50;99.90;;;;;;5062654;28;20532;-73
2020/12/04 09:37:27;;;;;;;5.85;4.75;;;5.50;99.90;;;;;;5063437;28;20456;-74
2020/12/04 09:39:57;;;;;;;6.87;5.80;;;5.40;99.90;;;;;;5064323;28;21104;-73
2020/12/04 09:42:27;;;;;;;4.97;4.47;;;5.50;99.90;;;;;;5062182;28;20494;-73
2020/12/04 09:44:56;;;;;;;6.03;4.47;;;5.60;99.90;;;;;;5065204;28;20497;-74
2020/12/04 09:47:24;;;;;;;4.70;4.30;;;5.60;99.90;;;;;;5062732;28;21018;-73
2020/12/04 09:49:52;;;;;;;6.10;4.40;;;5.50;99.90;;;;;;5071209;28;20238;-74
2020/12/04 09:52:20;;;;;;;5.90;4.78;;;5.60;99.90;;;;;;5063995;28;20789;-74
2020/12/04 09:54:49;;;;;;;5.37;4.40;;;5.70;99.90;;;;;;5062217;28;20318;-74
2020/12/04 09:57:17;;;;;;;4.50;4.03;;;5.80;99.90;;;;;;5063352;28;20556;-74
2020/12/04 09:59:45;;;;;;;4.30;3.87;;;5.50;99.90;;;;;;5066224;28;20470;-74
2020/12/04 10:02:12;;;;;;;5.50;4.27;;;5.40;99.90;;;;;;5065732;28;20555;-74
2020/12/04 10:04:40;;;;;;;7.90;4.63;;;5.50;99.90;;;;;;5068928;28;20470;-74
2020/12/04 10:07:08;;;;;;;5.23;4.50;;;5.40;99.90;;;;;;5064413;28;20462;-74
2020/12/04 10:09:38;;;;;;;6.50;5.10;;;5.20;99.90;;;;;;5067914;28;20603;-74
2020/12/04 10:12:05;;;;;;;5.30;4.22;;;5.10;99.90;;;;;;5067101;28;20463;-74
2020/12/04 10:14:34;;;;;;;6.03;4.60;;;5.10;99.90;;;;;;5066205;28;20210;-74
2020/12/04 10:17:02;;;;;;;5.20;4.15;;;5.10;99.90;;;;;;5067065;28;20906;-74
2020/12/04 10:19:29;;;;;;;4.43;4.03;;;5.00;99.90;;;;;;5066254;28;20209;-73
2020/12/04 10:21:57;;;;;;;5.85;4.32;;;4.90;99.90;;;;;;5067779;28;21031;-72
2020/12/04 10:24:24;;;;;;;5.70;4.20;;;5.10;99.90;;;;;;5065635;28;20738;-74
2020/12/04 10:26:53;;;;;;;4.13;3.72;;;5.30;99.90;;;;;;5065852;28;20533;-73
2020/12/04 10:29:21;;;;;;;4.43;4.00;;;5.50;99.90;;;;;;5066278;28;20229;-74
2020/12/04 10:31:48;;;;;;;6.28;5.13;;;5.70;99.90;;;;;;5067198;28;20472;-74
2020/12/04 10:34:17;;;;;;;6.57;5.90;;;5.80;99.90;;;;;;5067602;28;20549;-74
2020/12/04 10:36:44;;;;;;;8.02;5.05;;;5.90;99.90;;;;;;5065885;28;20235;-74
2020/12/04 10:39:13;;;;;;;7.50;6.18;;;5.90;99.90;;;;;;5063967;28;20235;-73
2020/12/04 10:41:43;;;;;;;7.77;5.33;;;5.70;99.90;;;;;;5066654;28;20599;-73
2020/12/04 10:44:12;;;;;;;4.97;4.35;;;5.70;99.90;;;;;;5067605;28;21002;-74
2020/12/04 10:46:40;;;;;;;6.38;5.32;;;5.70;99.90;;;;;;5067563;28;20245;-73
2020/12/04 10:49:07;;;;;;;4.68;4.18;;;5.70;99.90;;;;;;5064719;28;20307;-74
2020/12/04 10:51:36;;;;;;;4.07;3.53;;;5.50;99.90;;;;;;5064656;28;20213;-74
2020/12/04 10:54:04;;;;;;;5.13;4.10;;;5.50;99.90;;;;;;5064269;28;20246;-73
2020/12/04 10:56:32;;;;;;;5.53;4.50;;;5.80;99.90;;;;;;5064143;28;21236;-74
2020/12/04 10:58:59;;;;;;;6.65;4.70;;;5.90;99.90;;;;;;5063519;28;20468;-73
2020/12/04 11:01:33;;;;;;;4.28;3.80;;;5.70;99.90;;;;;;5065342;28;20226;-73
2020/12/04 11:06:42;;;;;;;6.80;4.82;;;5.80;99.90;;;;;;5043748;28;20491;-73
2020/12/04 11:09:09;;;;;;;5.43;4.23;;;5.50;99.90;;;;;;5067601;28;20233;-73
2020/12/04 11:11:36;;;;;;;5.18;3.80;;;5.60;99.90;;;;;;5064529;28;20565;-74
2020/12/04 11:14:04;;;;;;;9.18;6.50;;;5.80;99.90;;;;;;5067637;28;20657;-73
2020/12/04 11:16:32;;;;;;;9.57;6.90;;;5.90;99.90;;;;;;5067657;28;20745;-73
2020/12/04 11:19:00;;;;;;;8.77;6.23;;;5.90;99.90;;;;;;5064518;28;20461;-73
2020/12/04 11:21:28;;;;;;;13.60;6.60;;;6.10;99.90;;;;;;5066248;28;21046;-75
2020/12/04 11:23:55;;;;;;;10.93;5.20;;;6.20;99.90;;;;;;5064910;28;20221;-73
2020/12/04 11:26:23;;;;;;;11.07;6.67;;;6.20;99.90;;;;;;5067883;28;20779;-72
2020/12/04 11:28:50;;;;;;;8.33;6.67;;;6.00;99.90;;;;;;5069243;28;20490;-72
2020/12/04 11:31:18;;;;;;;9.50;5.87;;;6.00;99.90;;;;;;5066864;28;20477;-72
2020/12/04 11:33:46;;;;;;;8.80;5.90;;;5.90;99.90;;;;;;5067311;28;20764;-73
2020/12/04 11:36:13;;;;;;;7.83;5.90;;;5.90;99.90;;;;;;5065419;28;20485;-72
2020/12/04 11:38:41;;;;;;;11.80;6.50;;;5.90;99.90;;;;;;5065523;28;21045;-73
2020/12/04 11:41:10;;;;;;;7.97;6.53;;;6.00;99.90;;;;;;5068283;28;20558;-72
2020/12/04 11:43:38;;;;;;;6.67;5.10;;;5.90;99.90;;;;;;5061850;28;20572;-72
2020/12/04 11:46:05;;;;;;;9.15;4.97;;;5.70;99.90;;;;;;5064580;28;20501;-72
2020/12/04 11:48:32;;;;;;;9.27;6.13;;;5.80;99.90;;;;;;5065175;28;20242;-73
2020/12/04 11:51:01;;;;;;;9.70;4.80;;;6.00;99.90;;;;;;5066149;28;20500;-73
2020/12/04 11:53:28;;;;;;;9.60;6.65;;;6.20;99.90;;;;;;5062519;28;20587;-73
2020/12/04 11:55:55;;;;;;;7.40;6.07;;;6.20;99.90;;;;;;5066563;28;20241;-73
2020/12/04 11:58:22;;;;;;;12.20;7.30;;;6.30;99.90;;;;;;5064282;28;21188;-73
2020/12/04 12:00:49;;;;;;;11.00;8.18;;;6.40;99.90;;;;;;5063803;28;20499;-73
2020/12/04 12:03:17;;;;;;;10.07;7.03;;;6.40;99.90;;;;;;5064375;28;20316;-73
2020/12/04 12:05:44;;;;;;;12.57;6.27;;;6.40;99.90;;;;;;5064704;28;21060;-73
2020/12/04 12:08:12;;;;;;;9.37;7.17;;;6.40;99.90;;;;;;5066176;28;20465;-73
2020/12/04 12:10:39;;;;;;;11.57;6.27;;;6.50;99.90;;;;;;5066863;28;20500;-73
2020/12/04 12:13:07;;;;;;;9.60;6.27;;;6.50;99.90;;;;;;5062034;28;20463;-73
2020/12/04 12:15:34;;;;;;;11.10;6.83;;;6.50;99.90;;;;;;5080782;28;20516;-74
2020/12/04 12:18:01;;;;;;;13.93;6.87;;;6.50;99.90;;;;;;5063948;28;20481;-74
2020/12/04 12:20:29;;;;;;;6.87;6.17;;;6.50;99.90;;;;;;5064162;28;20533;-73
2020/12/04 12:22:56;;;;;;;10.07;6.80;;;6.60;99.90;;;;;;5064183;28;20998;-73
2020/12/04 12:25:25;;;;;;;11.93;6.63;;;6.50;99.90;;;;;;5064453;28;20500;-73
2020/12/04 12:28:05;;;;;;;11.13;7.47;;;6.50;99.90;;;;;;5060098;28;20559;-73
2020/12/04 12:30:32;;;;;;;10.70;7.83;;;6.50;99.90;;;;;;5065828;28;20580;-72
2020/12/04 12:33:00;;;;;;;12.10;7.33;;;6.60;99.90;;;;;;5066168;28;20466;-71
2020/12/04 12:35:27;;;;;;;12.93;8.70;;;6.60;99.90;;;;;;5062346;28;21027;-69
2020/12/04 12:37:54;;;;;;;16.17;7.10;;;6.60;99.90;;;;;;5064475;28;20475;-71
2020/12/04 12:40:21;;;;;;;10.00;7.10;;;6.60;99.90;;;;;;5063397;28;20466;-71
2020/12/04 12:42:50;;;;;;;18.23;7.77;;;6.60;99.90;;;;;;5066137;28;20469;-71
2020/12/04 12:45:17;;;;;;;12.07;7.83;;;6.70;99.90;;;;;;5062510;28;20511;-74
2020/12/04 12:47:44;;;;;;;10.73;7.10;;;6.80;99.90;;;;;;5064830;28;20836;-74
2020/12/04 12:50:12;;;;;;;13.63;7.53;;;6.80;99.90;;;;;;5063802;28;20499;-74
2020/12/04 12:52:39;;;;;;;13.50;8.07;;;6.80;99.90;;;;;;5062877;28;21021;-74
2020/12/04 12:55:06;;;;;;;13.30;7.03;;;6.80;99.90;;;;;;5064020;28;20497;-73
2020/12/04 12:57:34;;;;;;;9.20;7.00;;;6.80;99.90;;;;;;5063456;28;20474;-74
2020/12/04 13:00:03;;;;;;;10.27;6.30;;;6.80;99.90;;;;;;5063470;28;20468;-73
2020/12/04 13:02:30;;;;;;;6.63;5.80;;;6.80;99.90;;;;;;5063010;28;20474;-73
2020/12/04 13:04:57;;;;;;;16.43;6.70;;;6.80;99.90;;;;;;5062326;28;20501;-74
2020/12/04 13:07:25;;;;;;;12.37;7.37;;;6.80;99.90;;;;;;5064273;28;20543;-74
2020/12/04 13:09:52;;;;;;;9.63;6.33;;;6.80;99.90;;;;;;5063261;28;20896;-73